Sinclairville, NY (14782)

11:40 PM EST on February 24, 2017 (GMT -0500)
Cassadaga Valley HS | | Change Station
Active Advisory: Wind Advisory

Elev 1450 ft 42.25 °N, 79.28 °W | Updated 45 seconds ago

Mostly Cloudy
Mostly Cloudy
62.6 °F
Feels Like 62.6 °F
N
0.0
Wind Variable Wind from South
Gusts 0.0 mph

Today
High -- | Low -- °F
--% Chance of Precip.
Yesterday
High -- | Low -- °F
Precip. -- in
Pressure 29.52 in
Visibility 10.0 miles
Clouds Clear
Dew Point 52 °F
Humidity 67%
Rainfall 0.04 in
Snow Depth Not available.
6:59 AM 6:01 PM
Waning Crescent, 2% visible
METAR KDKK 250353Z AUTO 17018G28KT 10SM CLR 19/10 A2953 RMK AO2 PK WND 16030/0334 SLP995 T01940100
Pressure 29.52 in
Visibility 10.0 miles
Clouds Clear
Dew Point 52 °F
Humidity 67%
Rainfall 0.04 in
Snow Depth Not available.
6:59 AM 6:01 PM
Waning Crescent, 2% visible
METAR KDKK 250353Z AUTO 17018G28KT 10SM CLR 19/10 A2953 RMK AO2 PK WND 16030/0334 SLP995 T01940100

Get Your Daily Forecast Email!

Thanks for signing up!

Be on the lookout for a verification email in your inbox.

You'll start receiving the daily forecast at 8 AM.

×

10-Day Weather Forecast

Almanac

Astronomy

Feb. 24, 2017 Rise Set
Actual Time
Civil Twilight
Nautical Twilight
Astronomical Twilight
Moon
Length of Visible Light
Length of Day
Tomorrow will be .
, % of the Moon is Illuminated

Today's Extremes

State Highs State Lows

Community

WunderPhotos

Upload Photos

1,962,540 photos uploaded!

WunderBlog® & News

Nearby

Air Quality

  Air Quality AQ Index Pollutant
Not available.

Snow Depth

Station Depth Elevation

Earthquake Activity

City Distance Mag. Time & Date
Minimum magnitude displayed is 2.5.

Coastal Water Temperatures

Place Temperature

Stations

Nearby Weather Stations

Station Location Temp. Windchill Dew Point Humidity Wind Precip. Elev Updated Type
                   

Watches & Warnings

Wind Advisory
Issued: 8:40 PM EST Feb. 24, 2017 – National Weather Service

... Wind Advisory remains in effect from 10 am to 10 PM EST
Saturday...

* locations... along the Lake Shore of Chautauqua County, across
the Niagara Frontier and to Monroe County.

* Timing... from late Saturday morning through late Saturday
evening.

* Winds... west 20 to 30 mph with gusts up to 50 mph.

* Impacts... winds of this magnitude will result in a few tree
limbs coming down. Travel in high profile vehicles will be
difficult at times in open areas.

Precautionary/preparedness actions...

A Wind Advisory is issued when sustained winds are forecast to be
31 to 39 mph or gusts will range between 46 and 57 mph. Winds of
these magnitudes may cause minor property damage without extra
precautions. Motorists in high profile vehicles should use
caution until the winds subside. Stay tuned to NOAA Weather Radio
and other radio and TV stations for further details or updates.



Thomas